首页
METAR-TAF:

METAR-TAF

机场 :

阿尔汉格尔斯克, 俄罗斯

纬度: 64-30N, 经度: 040-44E, 海拔: 13米

当前天气观测

该预报发布于32分钟前的15:00 UTC
风速6节,风向西
温度 6°C
湿度 56%
气压 1007 hPa
能见度10公里或以上
散云层高于3000英尺

METAR: ULAA 081500Z 26003MPS 9999 SCT030 06/M02 Q1007 R26/910565 NOSIG RMK QFE754/1005

时间: 18:32 (15:32 UTC)

预报

该预报发布于1小时和32分钟前的14:00 UTC
预报有效从08日的 15点(UTC)到 09日的 15点(UTC)
风速6节,风向西转西南
能见度10公里或以上
多云层高于2000英尺
短暂存在
从 08日的 15点(UTC)到 08日的 24点(UTC)
风速10节,风向南转西南,有时为19节阵风
多云层高于1500英尺
从 09日的 0000点(UTC)
风速6节,风向西转西南,有时为16节阵风
能见度10公里或以上
多云层高于1500英尺
短暂存在
从 09日的 00点(UTC)到 09日的 06点(UTC)
风速10节,风向南转西南,有时为19节阵风
多云层高于1200英尺, 积雨云.
小阵雨
短暂存在
从 09日的 06点(UTC)到 09日的 15点(UTC)
风速12节,风向西,有时为23节阵风
能見度: 3100
散云层高于700英尺
多云层高于1200英尺, 积雨云.
小阵雨

TAF: ULAA 081400Z 0815/0915 24003MPS 9999 BKN020 TEMPO 0815/0824 20005G10MPS BKN015 FM090000 24003G08MPS 9999 BKN015 TEMPO 0900/0906 20005G10MPS -SHRA BKN012CB TEMPO 0906/0915 27006G12MPS 3100 -SHRA SCT007 BKN012CB

超过4000个机场的气象观测和天气预报(METAR&TAF报告)。

可查询的气象台以黄色和红色小点在地图上表示。

将鼠标移到小点上方,可查看气象台名称。

然后点击查看天气观测和预报。

如需切换地图:点击带黑十字的绿色按钮放大地图;点击带横线的绿色按钮缩小地图;或者点击绿色箭头查看邻近地区的地图。


METAR-TAF: